Time;durP1;ratioP1;P1;durP2;ratioP2;P2;SDS_P1;SDS_P2;PMS_P1;PMS_P2;Temp;Humidity;BMP_temperature;BMP_pressure;BME280_temperature;BME280_humidity;BME280_pressure;Samples;Min_cycle;Max_cycle;Signal;HPM_P1;HPM_P2
2021/09/07 00:00:15;;;;;;;11.07;7.05;;;14.80;71.20;;;;;;5001100;28;20112;-71
2021/09/07 00:02:41;;;;;;;10.18;7.38;;;14.80;71.30;;;;;;4998849;28;20603;-71
2021/09/07 00:05:09;;;;;;;9.27;7.60;;;14.70;71.40;;;;;;5000936;28;20811;-71
2021/09/07 00:07:35;;;;;;;10.15;7.20;;;14.60;71.70;;;;;;5000722;28;20092;-71
2021/09/07 00:10:00;;;;;;;9.95;7.47;;;14.60;71.80;;;;;;5001988;28;20038;-71
2021/09/07 00:12:26;;;;;;;9.40;7.30;;;14.50;72.10;;;;;;4998066;28;20049;-71
2021/09/07 00:14:52;;;;;;;10.60;7.25;;;14.50;72.30;;;;;;4996633;28;20092;-71
2021/09/07 00:17:18;;;;;;;9.48;7.38;;;14.40;72.40;;;;;;4999386;28;20038;-72
2021/09/07 00:19:44;;;;;;;9.07;7.60;;;14.40;72.60;;;;;;5000578;28;20038;-72
2021/09/07 00:22:09;;;;;;;9.85;7.25;;;14.30;72.60;;;;;;5000595;28;20041;-70
2021/09/07 00:24:35;;;;;;;9.70;7.57;;;14.30;72.80;;;;;;4998587;28;20034;-71
2021/09/07 00:27:01;;;;;;;8.85;7.43;;;14.30;73.00;;;;;;4998790;28;20030;-71
2021/09/07 00:29:28;;;;;;;7.63;6.47;;;14.30;73.10;;;;;;5000821;28;20038;-71
2021/09/07 00:31:53;;;;;;;9.50;7.47;;;14.20;73.00;;;;;;5000337;28;20030;-71
2021/09/07 00:34:19;;;;;;;8.00;6.90;;;14.20;73.10;;;;;;4999137;28;20073;-71
2021/09/07 00:36:45;;;;;;;8.80;6.80;;;14.20;73.10;;;;;;5000259;28;20083;-71
2021/09/07 00:39:12;;;;;;;8.80;6.55;;;14.30;72.90;;;;;;4999861;28;20057;-71
2021/09/07 00:41:39;;;;;;;9.73;6.93;;;14.30;72.80;;;;;;4998796;28;20036;-71
2021/09/07 00:44:19;;;;;;;8.15;6.93;;;14.30;72.60;;;;;;4999676;28;20688;-71
2021/09/07 00:46:49;;;;;;;7.90;7.10;;;14.30;73.30;;;;;;4999599;28;20107;-71
2021/09/07 00:49:15;;;;;;;9.60;7.47;;;14.30;72.70;;;;;;5002467;28;20034;-71
2021/09/07 00:51:42;;;;;;;12.75;7.60;;;14.30;72.50;;;;;;4997985;28;20121;-71
2021/09/07 00:54:09;;;;;;;9.63;7.10;;;14.30;72.60;;;;;;4998729;28;20040;-69
2021/09/07 00:56:35;;;;;;;8.85;7.05;;;14.20;72.40;;;;;;4997588;28;20393;-71
2021/09/07 00:59:02;;;;;;;9.18;7.18;;;14.20;72.60;;;;;;4997109;28;20041;-70
2021/09/07 01:01:28;;;;;;;9.80;7.00;;;14.10;72.60;;;;;;4997511;28;20030;-70
2021/09/07 01:03:54;;;;;;;9.90;6.82;;;14.10;72.80;;;;;;4998193;28;20060;-70
2021/09/07 01:06:20;;;;;;;7.85;7.00;;;14.20;73.70;;;;;;4999665;28;20045;-70
2021/09/07 01:08:46;;;;;;;8.77;7.10;;;14.20;72.60;;;;;;4998720;28;20065;-70
2021/09/07 01:11:14;;;;;;;7.68;6.65;;;14.20;72.50;;;;;;4998334;28;20026;-71
2021/09/07 01:13:40;;;;;;;8.93;7.07;;;14.20;72.30;;;;;;4998556;28;20149;-70
2021/09/07 01:16:05;;;;;;;9.95;6.88;;;14.20;72.30;;;;;;5001665;28;20113;-70
2021/09/07 01:18:31;;;;;;;8.15;6.50;;;14.20;72.30;;;;;;4997877;28;20060;-70
2021/09/07 01:20:57;;;;;;;9.95;7.60;;;14.20;72.20;;;;;;4997256;28;20045;-70
2021/09/07 01:23:22;;;;;;;9.13;6.93;;;14.20;72.20;;;;;;4998666;28;20042;-70
2021/09/07 01:25:48;;;;;;;9.45;7.55;;;14.10;72.10;;;;;;4999460;28;20056;-70
2021/09/07 01:28:15;;;;;;;9.52;7.53;;;14.10;72.30;;;;;;4999071;28;20057;-70
2021/09/07 01:30:42;;;;;;;12.88;8.20;;;14.10;72.30;;;;;;4999470;28;20044;-71
2021/09/07 01:33:08;;;;;;;13.27;8.50;;;14.10;72.50;;;;;;4961948;28;1106937;-71
2021/09/07 01:35:34;;;;;;;11.82;8.27;;;14.10;72.50;;;;;;4999049;28;20030;-70
2021/09/07 01:38:00;;;;;;;11.93;8.25;;;14.00;72.60;;;;;;4999220;28;20116;-69
2021/09/07 01:40:25;;;;;;;10.13;8.05;;;14.00;72.80;;;;;;4999240;28;20130;-70
2021/09/07 01:42:51;;;;;;;10.45;8.30;;;13.90;72.90;;;;;;4999246;28;20030;-70
2021/09/07 01:45:17;;;;;;;11.60;7.80;;;13.90;73.00;;;;;;4999613;28;20038;-70
2021/09/07 01:47:42;;;;;;;9.85;7.72;;;13.90;73.20;;;;;;4999341;28;20093;-70
2021/09/07 01:50:09;;;;;;;10.40;8.13;;;13.80;73.20;;;;;;5000228;28;20033;-71
2021/09/07 01:52:35;;;;;;;9.77;7.75;;;13.80;73.20;;;;;;4999368;28;20069;-69
2021/09/07 01:55:00;;;;;;;11.48;8.10;;;13.80;73.20;;;;;;5001176;28;20058;-70
2021/09/07 01:57:26;;;;;;;11.05;7.78;;;13.80;73.10;;;;;;5002245;28;20527;-70
2021/09/07 01:59:53;;;;;;;8.88;7.53;;;13.80;72.90;;;;;;5001967;28;20042;-70
2021/09/07 02:02:18;;;;;;;11.68;7.50;;;13.80;73.70;;;;;;5002412;28;20042;-71
2021/09/07 02:04:47;;;;;;;10.55;7.50;;;13.90;72.80;;;;;;5000821;28;20500;-70
2021/09/07 02:07:13;;;;;;;8.95;7.78;;;13.80;72.90;;;;;;5002761;28;20038;-70
2021/09/07 02:09:39;;;;;;;11.00;7.97;;;13.90;73.00;;;;;;5005010;28;20496;-69
2021/09/07 02:12:06;;;;;;;12.00;7.40;;;13.90;72.80;;;;;;5001907;28;20044;-70
2021/09/07 02:14:32;;;;;;;11.18;7.95;;;13.90;72.60;;;;;;5001850;28;20041;-70
2021/09/07 02:16:58;;;;;;;15.35;8.57;;;13.90;72.50;;;;;;5000067;28;20045;-70
2021/09/07 02:19:24;;;;;;;13.73;8.35;;;13.90;72.30;;;;;;5002526;28;20504;-70
2021/09/07 02:21:50;;;;;;;9.48;7.63;;;13.80;72.40;;;;;;5000744;28;20037;-70
2021/09/07 02:24:15;;;;;;;12.02;8.20;;;13.80;72.50;;;;;;5003115;28;20416;-69
2021/09/07 02:26:42;;;;;;;11.55;8.10;;;13.70;72.60;;;;;;5001498;28;20033;-70
2021/09/07 02:29:08;;;;;;;11.60;8.32;;;13.70;72.60;;;;;;5001688;28;20026;-70
2021/09/07 02:31:34;;;;;;;12.82;7.95;;;13.70;72.70;;;;;;5000993;28;20377;-69
2021/09/07 02:33:59;;;;;;;10.13;8.10;;;13.60;72.60;;;;;;5003536;28;20038;-71
2021/09/07 02:36:26;;;;;;;10.95;8.35;;;13.60;72.80;;;;;;5002754;28;20516;-70
2021/09/07 02:38:54;;;;;;;10.85;8.13;;;13.50;73.00;;;;;;5001957;28;20629;-70
2021/09/07 02:41:20;;;;;;;10.63;8.13;;;13.50;73.30;;;;;;5002207;28;20037;-69
2021/09/07 02:43:46;;;;;;;12.90;9.07;;;13.50;73.30;;;;;;5002066;28;20034;-70
2021/09/07 02:46:12;;;;;;;11.50;8.65;;;13.50;73.20;;;;;;4998422;28;20022;-70
2021/09/07 02:48:37;;;;;;;11.50;9.10;;;13.50;73.40;;;;;;5001882;28;20431;-70
2021/09/07 02:51:03;;;;;;;10.90;7.97;;;13.50;73.70;;;;;;4999680;28;20030;-70
2021/09/07 02:53:29;;;;;;;13.30;7.78;;;13.40;73.80;;;;;;5001661;28;20122;-70
2021/09/07 02:55:55;;;;;;;10.93;8.43;;;13.40;74.00;;;;;;5001175;28;20041;-71
2021/09/07 02:58:20;;;;;;;11.55;8.48;;;13.40;74.00;;;;;;5001817;28;20049;-71
2021/09/07 03:00:46;;;;;;;11.80;9.00;;;13.40;74.00;;;;;;4999643;28;20049;-70
2021/09/07 03:03:12;;;;;;;13.52;8.43;;;13.40;73.70;;;;;;5002419;28;20039;-70
2021/09/07 03:05:37;;;;;;;11.90;7.90;;;13.40;74.50;;;;;;4999497;28;20046;-70
2021/09/07 03:08:03;;;;;;;11.48;7.82;;;13.40;74.50;;;;;;5002138;28;20041;-70
2021/09/07 03:10:29;;;;;;;10.75;7.80;;;13.40;73.70;;;;;;5000421;28;20038;-69
2021/09/07 03:12:55;;;;;;;10.52;8.85;;;13.40;73.70;;;;;;5001422;28;20258;-70
2021/09/07 03:15:22;;;;;;;11.35;8.70;;;13.40;73.50;;;;;;5001788;28;20049;-69
2021/09/07 03:17:49;;;;;;;10.55;8.10;;;13.40;73.50;;;;;;5001638;28;20046;-70
2021/09/07 03:20:15;;;;;;;9.70;7.90;;;13.40;73.30;;;;;;5000660;28;20129;-70
2021/09/07 03:22:40;;;;;;;9.32;7.68;;;13.40;73.30;;;;;;4997539;28;20124;-70
2021/09/07 03:25:06;;;;;;;13.20;8.70;;;13.30;73.40;;;;;;5000430;28;20117;-70
2021/09/07 03:27:32;;;;;;;13.40;8.55;;;13.30;73.70;;;;;;4998219;28;20065;-71
2021/09/07 03:29:58;;;;;;;11.45;8.77;;;13.30;73.70;;;;;;4999006;28;20460;-70
2021/09/07 03:32:23;;;;;;;10.48;8.18;;;13.30;73.40;;;;;;4996579;28;20469;-71
2021/09/07 03:34:49;;;;;;;14.30;7.80;;;13.30;74.10;;;;;;4999378;28;20053;-70
2021/09/07 03:37:15;;;;;;;12.50;8.00;;;13.20;73.20;;;;;;4997809;28;20058;-70
2021/09/07 03:39:41;;;;;;;11.60;8.88;;;13.20;73.30;;;;;;4998406;28;20541;-71
2021/09/07 03:42:07;;;;;;;10.05;8.10;;;13.20;73.50;;;;;;4998679;28;20142;-72
2021/09/07 03:44:32;;;;;;;10.02;7.90;;;13.20;73.70;;;;;;4998329;28;20539;-70
2021/09/07 03:46:58;;;;;;;8.82;7.53;;;13.20;73.60;;;;;;5000020;28;20034;-70
2021/09/07 03:49:24;;;;;;;10.32;7.88;;;13.10;73.60;;;;;;4998029;28;20041;-71
2021/09/07 03:51:50;;;;;;;9.57;7.63;;;13.20;73.90;;;;;;4999774;28;20030;-70
2021/09/07 03:54:15;;;;;;;10.48;7.70;;;13.20;73.60;;;;;;5000073;28;20046;-70
2021/09/07 03:56:41;;;;;;;11.23;8.23;;;13.20;73.30;;;;;;5000490;28;20042;-70
2021/09/07 03:59:06;;;;;;;10.30;7.65;;;13.20;73.20;;;;;;5001596;28;20711;-70
2021/09/07 04:01:32;;;;;;;9.23;7.38;;;13.20;73.00;;;;;;4997212;28;20168;-71
2021/09/07 04:03:58;;;;;;;10.48;7.90;;;13.20;73.00;;;;;;4997313;28;20029;-70
2021/09/07 04:06:23;;;;;;;12.40;8.02;;;13.20;73.10;;;;;;4999642;28;20129;-70
2021/09/07 04:08:49;;;;;;;9.57;7.53;;;13.20;73.20;;;;;;4999583;28;20181;-70
2021/09/07 04:11:14;;;;;;;9.60;7.15;;;13.10;73.10;;;;;;4998510;28;20038;-70
2021/09/07 04:13:40;;;;;;;10.00;7.85;;;13.10;73.00;;;;;;4999889;28;20516;-70
2021/09/07 04:16:06;;;;;;;10.95;7.90;;;13.10;72.80;;;;;;4999854;28;20041;-68
2021/09/07 04:18:31;;;;;;;10.25;7.35;;;13.00;72.80;;;;;;4998365;28;20560;-70
2021/09/07 04:20:57;;;;;;;9.05;7.57;;;13.00;72.90;;;;;;4999875;28;20552;-70
2021/09/07 04:23:23;;;;;;;8.82;7.13;;;12.90;73.10;;;;;;5000287;28;20108;-69
2021/09/07 04:25:48;;;;;;;13.00;7.85;;;12.90;73.20;;;;;;5001041;28;20396;-70
2021/09/07 04:28:16;;;;;;;9.00;7.13;;;12.80;73.30;;;;;;5000529;28;20030;-70
2021/09/07 04:30:41;;;;;;;10.63;7.70;;;12.70;73.40;;;;;;4999472;28;20080;-70
2021/09/07 04:33:07;;;;;;;13.50;8.15;;;12.70;73.60;;;;;;4993755;28;20121;-70
2021/09/07 04:35:32;;;;;;;8.93;7.38;;;12.70;73.90;;;;;;4999058;28;20560;-69
2021/09/07 04:37:58;;;;;;;12.63;8.73;;;12.70;73.80;;;;;;4999926;28;20041;-70
2021/09/07 04:40:24;;;;;;;9.43;7.47;;;12.70;73.70;;;;;;4998980;28;20063;-69
2021/09/07 04:42:49;;;;;;;11.82;8.23;;;12.60;73.70;;;;;;5000022;28;20125;-68
2021/09/07 04:45:15;;;;;;;11.20;8.65;;;12.70;73.80;;;;;;4999933;28;20042;-71
2021/09/07 04:47:41;;;;;;;9.77;7.88;;;12.60;73.70;;;;;;5000833;28;20038;-71
2021/09/07 04:50:07;;;;;;;10.40;8.27;;;12.60;73.70;;;;;;4998898;28;20108;-70
2021/09/07 04:52:32;;;;;;;11.38;8.40;;;12.60;73.70;;;;;;4999032;28;20034;-70
2021/09/07 04:54:58;;;;;;;11.02;8.18;;;12.60;73.70;;;;;;5000438;28;20092;-69
2021/09/07 04:57:24;;;;;;;12.35;8.15;;;12.60;73.80;;;;;;4999783;28;20096;-71
2021/09/07 04:59:49;;;;;;;13.32;8.95;;;12.60;74.00;;;;;;4998328;28;20042;-70
2021/09/07 05:02:15;;;;;;;12.10;8.75;;;12.60;74.10;;;;;;5000326;28;20034;-69
2021/09/07 05:04:41;;;;;;;13.50;9.10;;;12.60;74.20;;;;;;5000500;28;20087;-69
2021/09/07 05:07:06;;;;;;;13.05;9.70;;;12.60;74.20;;;;;;5000267;28;20074;-70
2021/09/07 05:09:32;;;;;;;12.40;9.68;;;12.50;74.30;;;;;;5000252;28;20052;-70
2021/09/07 05:11:57;;;;;;;14.50;9.23;;;12.50;74.60;;;;;;4997718;28;20042;-71
2021/09/07 05:14:23;;;;;;;14.70;9.45;;;12.50;74.90;;;;;;5000299;28;20089;-69
2021/09/07 05:16:49;;;;;;;13.60;10.20;;;12.40;75.10;;;;;;5000155;28;20497;-70
2021/09/07 05:19:16;;;;;;;16.58;10.52;;;12.40;75.40;;;;;;5000658;28;20038;-71
2021/09/07 05:21:42;;;;;;;14.95;10.43;;;12.30;76.10;;;;;;5000189;28;20042;-70
2021/09/07 05:24:07;;;;;;;14.23;10.57;;;12.30;76.00;;;;;;5000427;28;20034;-70
2021/09/07 05:26:33;;;;;;;19.48;10.77;;;12.30;76.20;;;;;;5005233;28;20777;-70
2021/09/07 05:28:59;;;;;;;15.38;9.43;;;12.30;76.30;;;;;;4999857;28;20034;-70
2021/09/07 05:31:24;;;;;;;22.05;10.95;;;12.30;76.60;;;;;;5001289;28;20052;-69
2021/09/07 05:33:50;;;;;;;17.63;10.35;;;12.30;76.80;;;;;;4998757;28;20124;-70
2021/09/07 05:36:15;;;;;;;19.00;10.30;;;12.40;77.00;;;;;;4999987;28;20101;-69
2021/09/07 05:38:42;;;;;;;18.83;10.80;;;12.40;76.90;;;;;;5000688;28;20025;-69
2021/09/07 05:41:07;;;;;;;12.65;9.00;;;12.40;76.80;;;;;;4997184;28;20069;-69
2021/09/07 05:43:33;;;;;;;17.85;9.43;;;12.50;76.80;;;;;;5000391;28;20064;-70
2021/09/07 05:45:59;;;;;;;13.48;9.60;;;12.50;76.90;;;;;;4999934;28;20474;-69
2021/09/07 05:48:24;;;;;;;13.43;9.13;;;12.50;77.00;;;;;;4993795;28;20041;-70
2021/09/07 05:50:50;;;;;;;19.98;9.40;;;12.60;77.00;;;;;;5000432;28;20393;-68
2021/09/07 05:53:15;;;;;;;14.27;9.48;;;12.70;77.00;;;;;;4996975;28;20488;-69
2021/09/07 05:55:41;;;;;;;19.80;9.65;;;12.70;77.00;;;;;;4997524;28;20029;-69
2021/09/07 05:58:07;;;;;;;14.98;9.80;;;12.80;77.00;;;;;;4998896;28;20042;-70
2021/09/07 06:00:32;;;;;;;12.93;9.35;;;12.80;77.10;;;;;;4999757;28;20034;-69
2021/09/07 06:03:02;;;;;;;13.88;9.65;;;12.90;77.00;;;;;;4998377;28;20633;-69
2021/09/07 06:05:27;;;;;;;14.88;9.77;;;13.00;77.10;;;;;;5000026;28;20030;-70
2021/09/07 06:07:53;;;;;;;12.35;9.65;;;13.10;77.10;;;;;;4999355;28;20203;-69
2021/09/07 06:10:19;;;;;;;14.43;9.98;;;13.10;77.10;;;;;;5000796;28;20101;-70
2021/09/07 06:12:44;;;;;;;11.90;9.15;;;13.20;77.20;;;;;;4998341;28;20034;-69
2021/09/07 06:15:10;;;;;;;13.43;9.00;;;13.20;77.10;;;;;;5000233;28;20503;-70
2021/09/07 06:17:36;;;;;;;15.40;8.82;;;13.30;77.00;;;;;;5000572;28;20037;-70
2021/09/07 06:20:04;;;;;;;18.60;9.75;;;13.40;77.00;;;;;;4997185;28;20049;-70
2021/09/07 06:22:29;;;;;;;12.52;9.10;;;13.50;77.20;;;;;;5014701;28;20939;-69
2021/09/07 06:24:55;;;;;;;15.55;9.90;;;13.50;76.90;;;;;;4999083;28;20250;-69
2021/09/07 06:27:21;;;;;;;12.00;9.55;;;13.60;76.80;;;;;;4999730;28;20030;-69
2021/09/07 06:29:47;;;;;;;14.00;9.65;;;13.70;76.80;;;;;;5001681;28;20053;-69
2021/09/07 06:32:17;;;;;;;16.08;10.02;;;13.80;76.80;;;;;;4998879;28;20034;-69
2021/09/07 06:34:42;;;;;;;13.18;9.18;;;13.90;76.80;;;;;;5000220;28;20173;-69
2021/09/07 06:37:08;;;;;;;13.63;9.75;;;13.90;76.60;;;;;;5001435;28;20505;-70
2021/09/07 06:39:34;;;;;;;16.27;9.98;;;14.00;77.70;;;;;;5002663;28;20096;-70
2021/09/07 06:42:00;;;;;;;18.70;10.23;;;14.00;76.80;;;;;;5004748;28;20037;-70
2021/09/07 06:44:25;;;;;;;15.15;9.68;;;14.10;76.60;;;;;;5004841;28;20429;-69
2021/09/07 06:46:51;;;;;;;15.70;10.95;;;14.20;76.70;;;;;;5005879;28;20053;-70
2021/09/07 06:49:16;;;;;;;14.35;10.88;;;14.20;77.00;;;;;;5010117;28;20066;-70
2021/09/07 06:51:42;;;;;;;14.48;11.02;;;14.30;77.00;;;;;;5006478;28;20042;-69
2021/09/07 06:54:08;;;;;;;13.73;10.52;;;14.30;77.00;;;;;;5002345;28;20053;-70
2021/09/07 06:56:33;;;;;;;15.40;10.18;;;14.30;76.80;;;;;;5002463;28;20052;-70
2021/09/07 06:58:59;;;;;;;14.20;10.35;;;14.30;77.00;;;;;;5002084;28;20026;-71
2021/09/07 07:01:24;;;;;;;13.35;10.80;;;14.40;77.20;;;;;;5000749;28;20042;-69
2021/09/07 07:03:50;;;;;;;13.52;9.90;;;14.40;77.30;;;;;;5003697;28;20034;-70
2021/09/07 07:06:16;;;;;;;11.85;9.60;;;14.40;77.40;;;;;;5002590;28;20034;-70
2021/09/07 07:08:41;;;;;;;14.18;10.80;;;14.50;77.40;;;;;;5001554;28;20033;-70
2021/09/07 07:11:07;;;;;;;14.52;11.23;;;14.50;77.50;;;;;;5002010;28;20050;-70
2021/09/07 07:13:33;;;;;;;12.90;10.73;;;14.60;77.50;;;;;;5007784;28;20091;-70
2021/09/07 07:15:58;;;;;;;14.35;11.07;;;14.70;78.40;;;;;;5002041;28;20105;-70
2021/09/07 07:18:24;;;;;;;16.70;12.27;;;14.70;77.30;;;;;;5001931;28;20045;-70
2021/09/07 07:20:50;;;;;;;15.18;12.00;;;14.80;77.40;;;;;;5003259;28;20097;-69
2021/09/07 07:23:15;;;;;;;15.57;12.02;;;14.90;77.30;;;;;;5001662;28;20049;-70
2021/09/07 07:25:42;;;;;;;15.30;11.70;;;14.90;77.30;;;;;;5002583;28;20033;-70
2021/09/07 07:28:07;;;;;;;15.82;12.75;;;15.00;77.30;;;;;;5002201;28;20042;-69
2021/09/07 07:30:33;;;;;;;14.40;11.27;;;15.10;77.40;;;;;;5002908;28;20045;-71
2021/09/07 07:32:59;;;;;;;17.90;12.50;;;15.10;77.30;;;;;;5002370;28;20041;-71
2021/09/07 07:35:26;;;;;;;15.23;12.02;;;15.20;77.30;;;;;;5003031;28;20125;-70
2021/09/07 07:37:51;;;;;;;14.80;11.45;;;15.30;77.30;;;;;;5006099;28;20045;-70
2021/09/07 07:40:17;;;;;;;15.68;11.68;;;15.40;77.30;;;;;;5001904;28;20038;-71
2021/09/07 07:42:43;;;;;;;16.08;11.73;;;15.50;77.50;;;;;;5002165;28;20042;-69
2021/09/07 07:45:09;;;;;;;18.05;12.77;;;15.60;77.30;;;;;;5001866;28;20026;-70
2021/09/07 07:47:35;;;;;;;16.15;12.93;;;15.60;77.00;;;;;;5000795;28;20042;-70
2021/09/07 07:50:01;;;;;;;18.33;13.25;;;15.70;77.00;;;;;;5001363;28;20462;-71
2021/09/07 07:52:27;;;;;;;18.88;14.13;;;15.80;77.50;;;;;;4998700;28;20038;-69
2021/09/07 07:54:52;;;;;;;19.00;13.27;;;15.90;76.30;;;;;;5001404;28;20049;-69
2021/09/07 07:57:18;;;;;;;17.10;13.20;;;15.90;75.90;;;;;;5001667;28;20512;-70
2021/09/07 07:59:44;;;;;;;16.00;12.43;;;16.00;75.90;;;;;;5001213;28;20041;-70
2021/09/07 08:02:10;;;;;;;16.88;12.20;;;15.90;75.80;;;;;;5014741;28;20099;-70
2021/09/07 08:04:36;;;;;;;16.13;12.98;;;16.00;75.80;;;;;;5005871;28;20501;-70
2021/09/07 08:07:01;;;;;;;18.92;12.82;;;16.00;75.80;;;;;;5001317;28;20944;-71
2021/09/07 08:09:29;;;;;;;17.63;13.23;;;16.10;75.80;;;;;;5001908;28;20033;-70
2021/09/07 08:11:54;;;;;;;16.05;12.98;;;16.20;75.70;;;;;;5001920;28;20038;-71
2021/09/07 08:14:20;;;;;;;17.48;13.20;;;16.20;75.70;;;;;;5005731;28;20049;-70
2021/09/07 08:16:46;;;;;;;16.42;12.85;;;16.30;75.60;;;;;;5000844;28;20207;-70
2021/09/07 08:19:12;;;;;;;18.08;13.70;;;16.40;75.60;;;;;;4998633;28;20026;-70
2021/09/07 08:21:37;;;;;;;17.95;12.93;;;16.40;75.40;;;;;;4999552;28;20042;-71
2021/09/07 08:24:03;;;;;;;17.10;12.63;;;16.50;75.40;;;;;;4999780;28;20105;-70
2021/09/07 08:26:29;;;;;;;17.67;12.63;;;16.60;75.40;;;;;;5000725;28;20030;-70
2021/09/07 08:28:54;;;;;;;21.52;14.57;;;16.70;75.40;;;;;;5002772;28;20041;-70
2021/09/07 08:31:20;;;;;;;17.63;12.70;;;16.70;75.10;;;;;;5003093;28;20121;-70
2021/09/07 08:33:46;;;;;;;18.15;13.00;;;16.80;74.90;;;;;;4999143;28;20034;-70
2021/09/07 08:36:12;;;;;;;16.67;13.50;;;16.90;74.80;;;;;;5001818;28;20030;-70
2021/09/07 08:38:37;;;;;;;16.00;13.40;;;16.90;74.80;;;;;;5001476;28;20034;-70
2021/09/07 08:41:03;;;;;;;18.70;13.95;;;17.00;74.80;;;;;;5001819;28;20038;-70
2021/09/07 08:43:29;;;;;;;17.90;12.77;;;17.10;74.80;;;;;;5003409;28;20041;-70
2021/09/07 08:45:57;;;;;;;15.88;12.40;;;17.20;74.60;;;;;;5002206;28;20041;-70
2021/09/07 08:48:25;;;;;;;16.52;12.77;;;17.30;74.40;;;;;;5016728;28;20515;-70
2021/09/07 08:50:53;;;;;;;15.77;12.60;;;17.40;75.40;;;;;;5003058;28;20038;-71
2021/09/07 08:53:19;;;;;;;15.90;12.25;;;17.50;74.40;;;;;;5001745;28;20069;-70
2021/09/07 08:55:44;;;;;;;17.27;11.63;;;17.60;74.50;;;;;;5004001;28;20065;-70
2021/09/07 08:58:10;;;;;;;16.27;12.70;;;17.70;74.20;;;;;;5002766;28;20045;-70
2021/09/07 09:00:35;;;;;;;15.43;13.13;;;17.80;74.20;;;;;;5005839;28;20022;-70
2021/09/07 09:03:12;;;;;;;16.67;12.77;;;17.90;73.70;;;;;;5002209;28;20034;-69
2021/09/07 09:05:45;;;;;;;18.40;13.77;;;18.00;73.50;;;;;;5002067;28;20057;-70
2021/09/07 09:08:12;;;;;;;17.60;12.93;;;18.20;73.40;;;;;;4999312;28;20044;-71
2021/09/07 09:10:39;;;;;;;15.57;11.88;;;18.30;73.10;;;;;;5000437;28;20030;-70
2021/09/07 09:13:14;;;;;;;20.98;12.48;;;18.40;73.00;;;;;;4999630;28;20042;-70
2021/09/07 09:15:59;;;;;;;19.02;13.02;;;18.50;72.50;;;;;;5006066;28;20030;-70
2021/09/07 09:18:32;;;;;;;18.30;12.95;;;18.60;72.50;;;;;;4999576;28;20030;-71
2021/09/07 09:21:25;;;;;;;17.92;13.13;;;18.70;71.90;;;;;;5000061;28;20038;-68
2021/09/07 09:24:14;;;;;;;15.48;12.35;;;18.90;71.60;;;;;;5000829;28;20061;-70
2021/09/07 09:26:56;;;;;;;17.13;11.35;;;19.00;71.20;;;;;;5001105;28;20049;-70
2021/09/07 09:29:36;;;;;;;13.40;10.65;;;19.10;70.60;;;;;;5001646;28;20026;-70
2021/09/07 09:32:13;;;;;;;11.75;10.07;;;19.20;70.20;;;;;;5000801;28;20033;-70
2021/09/07 09:34:41;;;;;;;15.70;10.95;;;19.30;70.40;;;;;;5000347;28;20030;-70
2021/09/07 09:37:09;;;;;;;17.58;10.63;;;19.40;70.20;;;;;;5002742;28;20405;-70
2021/09/07 09:39:47;;;;;;;12.60;10.18;;;19.60;70.10;;;;;;5000621;28;20026;-70
2021/09/07 09:42:27;;;;;;;18.70;11.90;;;19.70;69.70;;;;;;5001536;28;20042;-68
2021/09/07 09:45:11;;;;;;;15.68;12.35;;;19.80;69.00;;;;;;5001948;28;20034;-68
2021/09/07 09:47:40;;;;;;;14.75;11.57;;;20.00;67.80;;;;;;5001041;28;20065;-69
2021/09/07 09:50:07;;;;;;;15.43;11.45;;;20.10;68.60;;;;;;4999973;28;20045;-68
2021/09/07 09:52:35;;;;;;;14.13;11.07;;;20.20;68.60;;;;;;5013926;28;20181;-68
2021/09/07 09:55:05;;;;;;;14.40;10.27;;;20.30;68.40;;;;;;5000940;28;20119;-69
2021/09/07 09:57:34;;;;;;;12.77;9.88;;;20.40;68.50;;;;;;5001867;28;20034;-68
2021/09/07 10:00:02;;;;;;;12.38;9.52;;;20.50;67.80;;;;;;4999823;28;20125;-68
2021/09/07 10:02:29;;;;;;;11.73;9.55;;;20.70;67.90;;;;;;5001264;28;20412;-69
2021/09/07 10:04:55;;;;;;;14.63;9.07;;;20.80;68.20;;;;;;5000138;28;20035;-68
2021/09/07 10:07:21;;;;;;;9.30;8.35;;;21.00;67.30;;;;;;5000449;28;20041;-70
2021/09/07 10:09:48;;;;;;;10.48;7.88;;;21.10;66.70;;;;;;5000478;28;20038;-69
2021/09/07 10:12:22;;;;;;;9.00;7.63;;;21.20;66.10;;;;;;4999282;28;20045;-70
2021/09/07 10:15:08;;;;;;;8.55;7.03;;;21.40;65.20;;;;;;4997583;28;20038;-71
2021/09/07 10:20:10;;;;;;;8.13;6.20;;;21.70;63.70;;;;;;5003545;28;20117;-70
2021/09/07 10:25:51;;;;;;;6.38;5.70;;;21.90;61.40;;;;;;5002306;28;20108;-70
2021/09/07 10:28:31;;;;;;;6.60;5.63;;;22.10;60.20;;;;;;5004203;28;20037;-68
2021/09/07 10:31:06;;;;;;;5.95;5.07;;;22.20;59.90;;;;;;4999876;28;20047;-70
2021/09/07 10:33:43;;;;;;;7.65;5.72;;;22.30;59.50;;;;;;4981232;28;20038;-70
2021/09/07 10:36:23;;;;;;;5.15;4.65;;;22.40;59.00;;;;;;4982896;28;20589;-69
2021/09/07 10:38:53;;;;;;;6.57;5.03;;;22.50;58.60;;;;;;5001909;28;20045;-69
2021/09/07 10:41:38;;;;;;;5.25;4.75;;;22.60;58.80;;;;;;5017121;28;20034;-70
2021/09/07 10:44:27;;;;;;;5.15;4.45;;;22.70;57.90;;;;;;5017719;28;20030;-70
2021/09/07 10:46:57;;;;;;;6.43;5.07;;;22.80;57.20;;;;;;5002650;28;20030;-70
2021/09/07 10:49:24;;;;;;;5.28;4.57;;;22.90;56.40;;;;;;5002218;28;20085;-70
2021/09/07 10:52:17;;;;;;;4.90;4.50;;;23.00;56.90;;;;;;5001064;28;20038;-70
2021/09/07 10:54:48;;;;;;;6.65;4.50;;;23.10;56.10;;;;;;5002479;28;20073;-71
2021/09/07 10:57:32;;;;;;;5.63;4.50;;;23.20;56.00;;;;;;5002024;28;20037;-70
2021/09/07 11:00:01;;;;;;;4.55;4.10;;;23.30;54.70;;;;;;5017056;28;20053;-70
2021/09/07 11:02:35;;;;;;;4.75;4.30;;;23.30;55.50;;;;;;5002596;28;20030;-71
2021/09/07 11:05:04;;;;;;;5.10;4.60;;;23.40;55.00;;;;;;5003185;28;20030;-70
2021/09/07 11:07:35;;;;;;;5.25;4.70;;;23.50;55.20;;;;;;5001081;28;20462;-70
2021/09/07 11:10:01;;;;;;;5.78;5.05;;;23.60;54.30;;;;;;5002203;28;20038;-70
2021/09/07 11:12:33;;;;;;;5.00;4.50;;;23.60;54.80;;;;;;5002045;28;20049;-71
2021/09/07 11:15:10;;;;;;;5.20;4.57;;;23.70;53.80;;;;;;5001637;28;20420;-70
2021/09/07 11:17:48;;;;;;;4.65;4.25;;;23.80;54.10;;;;;;5002843;28;20362;-70
2021/09/07 11:20:14;;;;;;;5.60;4.70;;;23.80;53.60;;;;;;5004234;28;20125;-70
2021/09/07 11:22:39;;;;;;;6.10;4.57;;;23.90;53.40;;;;;;5003525;28;20026;-70
2021/09/07 11:25:08;;;;;;;5.13;4.43;;;24.00;53.10;;;;;;5002783;28;20401;-70
2021/09/07 11:27:56;;;;;;;5.05;4.30;;;24.10;52.60;;;;;;5003001;28;20504;-70
2021/09/07 11:30:24;;;;;;;4.72;4.30;;;24.10;52.50;;;;;;5020040;28;20100;-70
2021/09/07 11:32:58;;;;;;;4.75;4.30;;;24.20;52.20;;;;;;5002528;28;20525;-70
2021/09/07 11:35:24;;;;;;;4.93;4.32;;;24.20;51.20;;;;;;5002233;28;20045;-70
2021/09/07 11:37:54;;;;;;;7.15;4.00;;;24.30;52.20;;;;;;5001280;28;20035;-71
2021/09/07 11:40:20;;;;;;;4.63;3.72;;;24.30;51.10;;;;;;5000621;28;20034;-70
2021/09/07 11:42:48;;;;;;;4.55;4.05;;;24.40;50.70;;;;;;5000720;28;20049;-70
2021/09/07 11:45:34;;;;;;;10.40;4.32;;;24.40;50.50;;;;;;5000870;28;20030;-70
2021/09/07 11:48:01;;;;;;;4.80;3.83;;;24.50;49.90;;;;;;5002708;28;20523;-70
2021/09/07 11:50:38;;;;;;;4.30;3.90;;;24.50;51.20;;;;;;5000790;28;20046;-70
2021/09/07 11:53:07;;;;;;;5.25;3.92;;;24.60;50.30;;;;;;5002460;28;20039;-70
2021/09/07 11:55:42;;;;;;;4.22;3.83;;;24.60;49.60;;;;;;5000914;28;20104;-70
2021/09/07 11:58:08;;;;;;;4.27;3.87;;;24.70;48.40;;;;;;5002081;28;20049;-70
2021/09/07 12:00:35;;;;;;;4.95;4.40;;;24.70;49.20;;;;;;4999214;28;20323;-70
2021/09/07 12:03:13;;;;;;;4.57;4.18;;;24.80;49.00;;;;;;4999231;28;20035;-70
2021/09/07 12:05:58;;;;;;;4.35;3.88;;;24.80;48.30;;;;;;5001546;28;20092;-70
2021/09/07 12:08:42;;;;;;;4.07;3.67;;;24.90;47.70;;;;;;5001026;28;20056;-71
2021/09/07 12:11:29;;;;;;;4.35;3.95;;;24.90;47.20;;;;;;4998426;28;20052;-70
2021/09/07 12:14:23;;;;;;;4.25;3.75;;;25.00;48.00;;;;;;4999740;28;20033;-70
2021/09/07 12:17:03;;;;;;;3.78;3.47;;;25.00;46.60;;;;;;4997817;28;20041;-70
2021/09/07 12:19:37;;;;;;;3.92;3.63;;;25.00;46.50;;;;;;4999655;28;20034;-70
2021/09/07 12:22:10;;;;;;;4.30;3.90;;;25.10;47.50;;;;;;4999037;28;20572;-70
2021/09/07 12:24:37;;;;;;;5.35;4.05;;;25.10;46.40;;;;;;4998292;28;20041;-70
2021/09/07 12:27:19;;;;;;;5.25;3.55;;;25.10;46.60;;;;;;5000191;28;20038;-70
2021/09/07 12:30:10;;;;;;;4.50;3.65;;;25.10;45.70;;;;;;5001613;28;20049;-68
2021/09/07 12:33:07;;;;;;;3.63;3.33;;;25.10;45.40;;;;;;4995793;28;20950;-70
2021/09/07 12:35:42;;;;;;;4.60;4.05;;;25.10;45.00;;;;;;5001462;28;20555;-70
2021/09/07 12:38:19;;;;;;;4.28;3.85;;;25.20;45.60;;;;;;5000609;28;20048;-70
2021/09/07 12:40:53;;;;;;;4.15;3.28;;;25.20;45.00;;;;;;5000946;28;20045;-70
2021/09/07 12:43:19;;;;;;;4.23;3.83;;;25.20;44.40;;;;;;5001172;28;20061;-70
2021/09/07 12:45:57;;;;;;;6.78;3.50;;;25.20;45.50;;;;;;5001138;28;20483;-70
2021/09/07 12:48:23;;;;;;;4.28;3.88;;;25.20;44.70;;;;;;5000375;28;20386;-70